createdAt,value
2023-11-30T00:01:36.637Z,15.50
2023-11-30T00:04:04.784Z,12.30
2023-11-30T00:06:39.131Z,13.70
2023-11-30T00:09:07.651Z,14.70
2023-11-30T00:11:35.720Z,13.30
2023-11-30T00:14:03.810Z,11.00
2023-11-30T00:16:31.999Z,14.00
2023-11-30T00:19:00.056Z,14.50
2023-11-30T00:21:28.122Z,16.30
2023-11-30T00:23:56.169Z,15.50
2023-11-30T00:39:30.712Z,10.00
2023-11-30T00:41:59.033Z,9.80
2023-11-30T00:44:27.139Z,10.00
2023-11-30T00:46:55.270Z,11.00
2023-11-30T00:49:23.515Z,9.80
2023-11-30T00:51:51.619Z,13.00
2023-11-30T00:54:19.842Z,7.10
2023-11-30T00:56:48.197Z,9.00
2023-11-30T00:59:16.303Z,11.20
2023-11-30T01:01:44.580Z,9.40
2023-11-30T01:04:13.329Z,10.20
2023-11-30T01:06:41.353Z,10.00
2023-11-30T01:09:09.565Z,7.20
2023-11-30T01:11:43.828Z,16.50
2023-11-30T01:14:11.953Z,10.10
2023-11-30T01:16:40.751Z,8.00
2023-11-30T01:19:09.277Z,11.40
2023-11-30T01:21:37.409Z,11.50
2023-11-30T01:24:05.983Z,9.20
2023-11-30T01:26:34.003Z,12.10
2023-11-30T01:29:02.284Z,9.00
2023-11-30T01:31:30.411Z,10.20
2023-11-30T01:33:58.584Z,8.60
2023-11-30T01:36:26.677Z,13.20
2023-11-30T01:38:54.944Z,8.60
2023-11-30T01:41:23.032Z,8.50
2023-11-30T01:43:51.087Z,9.90
2023-11-30T01:46:19.273Z,9.30
2023-11-30T01:48:47.920Z,9.00
2023-11-30T01:51:16.136Z,12.80
2023-11-30T01:53:44.650Z,7.50
2023-11-30T01:56:12.785Z,8.50
2023-11-30T01:58:40.828Z,9.50
2023-11-30T02:01:09.107Z,9.70
2023-11-30T02:03:37.864Z,9.80
2023-11-30T02:06:06.330Z,10.60
2023-11-30T02:08:34.477Z,17.10
2023-11-30T02:11:02.495Z,17.00
2023-11-30T02:13:30.510Z,18.70
2023-11-30T02:15:58.795Z,15.80
2023-11-30T02:18:26.971Z,9.30
2023-11-30T02:20:57.506Z,8.60
2023-11-30T02:23:25.579Z,7.80
2023-11-30T02:25:53.882Z,10.90
2023-11-30T02:28:21.922Z,9.50
2023-11-30T02:30:51.186Z,7.60
2023-11-30T02:33:19.485Z,8.10
2023-11-30T02:35:47.960Z,9.50
2023-11-30T02:38:16.004Z,8.10
2023-11-30T02:40:44.169Z,8.20
2023-11-30T02:43:12.759Z,9.20
2023-11-30T02:45:40.867Z,7.50
2023-11-30T02:48:09.165Z,8.90
2023-11-30T02:50:38.677Z,11.90
2023-11-30T02:53:06.730Z,8.60
2023-11-30T02:55:34.839Z,8.60
2023-11-30T02:58:02.914Z,8.60
2023-11-30T03:00:31.084Z,8.50
2023-11-30T03:02:59.294Z,6.00
2023-11-30T03:05:27.383Z,10.40
2023-11-30T03:07:55.596Z,7.50
2023-11-30T03:10:24.574Z,12.00
2023-11-30T03:12:53.567Z,9.20
2023-11-30T03:15:23.562Z,7.00
2023-11-30T03:17:51.818Z,8.50
2023-11-30T03:20:20.317Z,9.00
2023-11-30T03:22:48.469Z,8.20
2023-11-30T03:25:17.328Z,10.20
2023-11-30T03:27:45.501Z,8.40
2023-11-30T03:30:13.765Z,10.10
2023-11-30T03:32:41.939Z,10.00
2023-11-30T03:35:10.225Z,7.50
2023-11-30T03:37:41.826Z,10.70
2023-11-30T03:40:12.298Z,10.30
2023-11-30T03:42:40.461Z,9.40
2023-11-30T03:45:09.506Z,8.70
2023-11-30T03:47:37.624Z,10.90
2023-11-30T03:50:06.165Z,8.60
2023-11-30T03:52:34.413Z,9.30
2023-11-30T03:55:02.509Z,10.80
2023-11-30T03:57:30.630Z,9.40
2023-11-30T03:59:59.053Z,9.20
2023-11-30T04:02:27.452Z,10.40
2023-11-30T04:04:56.196Z,12.40
2023-11-30T04:07:31.129Z,10.30
2023-11-30T04:10:00.166Z,12.10
2023-11-30T04:12:28.542Z,10.40
2023-11-30T04:14:56.665Z,14.00
2023-11-30T04:17:24.871Z,11.00
2023-11-30T04:19:52.915Z,14.80
2023-11-30T04:22:20.994Z,12.80
2023-11-30T04:24:49.151Z,13.30
2023-11-30T04:27:17.147Z,14.00
2023-11-30T04:29:45.425Z,10.60
2023-11-30T04:32:13.652Z,13.30
2023-11-30T04:34:42.176Z,17.00
2023-11-30T04:37:10.440Z,15.10
2023-11-30T04:39:39.229Z,13.40
2023-11-30T04:42:07.670Z,12.50
2023-11-30T04:44:35.811Z,10.60
2023-11-30T04:47:04.242Z,16.50
2023-11-30T04:49:32.630Z,14.10
2023-11-30T04:52:00.690Z,11.70
2023-11-30T04:54:28.813Z,14.60
2023-11-30T04:56:57.041Z,12.80
2023-11-30T04:59:25.186Z,13.50
2023-11-30T05:01:53.362Z,13.10
2023-11-30T05:04:21.709Z,13.40
2023-11-30T05:06:50.093Z,14.00
2023-11-30T05:09:18.441Z,11.40
2023-11-30T05:11:46.636Z,13.30
2023-11-30T05:14:14.649Z,12.60
2023-11-30T05:16:42.755Z,13.00
2023-11-30T05:19:11.161Z,15.10
2023-11-30T05:21:39.268Z,12.50
2023-11-30T05:24:07.430Z,12.00
2023-11-30T05:26:35.639Z,14.40
2023-11-30T05:29:04.237Z,13.50
2023-11-30T05:31:32.422Z,16.30
2023-11-30T05:34:00.752Z,16.10
2023-11-30T05:36:28.853Z,13.40
2023-11-30T05:38:57.022Z,15.80
2023-11-30T05:41:25.163Z,14.60
2023-11-30T05:43:53.261Z,14.30
2023-11-30T05:46:21.474Z,14.10
2023-11-30T05:48:52.728Z,11.00
2023-11-30T05:51:21.107Z,13.70
2023-11-30T05:53:49.290Z,16.00
2023-11-30T05:56:17.505Z,10.80
2023-11-30T05:58:45.600Z,12.00
2023-11-30T06:01:13.914Z,14.50
2023-11-30T06:03:42.361Z,16.80
2023-11-30T06:06:11.440Z,16.80
2023-11-30T06:08:39.754Z,12.30
2023-11-30T06:11:08.279Z,11.40
2023-11-30T06:13:36.572Z,20.70
2023-11-30T06:16:05.225Z,14.00
2023-11-30T06:18:33.425Z,15.80
2023-11-30T06:21:02.135Z,13.10
2023-11-30T06:23:30.302Z,12.70
2023-11-30T06:25:58.469Z,18.70
2023-11-30T06:28:29.651Z,16.10
2023-11-30T06:30:57.703Z,18.10
2023-11-30T06:33:25.947Z,16.50
2023-11-30T06:35:54.018Z,15.20
2023-11-30T06:38:22.154Z,13.80
2023-11-30T06:40:50.398Z,16.80
2023-11-30T06:43:18.639Z,18.60
2023-11-30T06:45:46.951Z,16.30
2023-11-30T06:48:15.108Z,18.10
2023-11-30T06:50:43.201Z,21.00
2023-11-30T06:53:11.239Z,14.10
2023-11-30T06:55:39.421Z,13.60
2023-11-30T06:58:07.714Z,14.20
2023-11-30T07:00:36.619Z,17.60
2023-11-30T07:03:04.867Z,15.90
2023-11-30T07:05:33.054Z,17.20
2023-11-30T07:08:01.523Z,15.70
2023-11-30T07:10:30.856Z,15.30
2023-11-30T07:12:59.241Z,16.50
2023-11-30T07:15:27.308Z,15.00
2023-11-30T07:17:55.678Z,13.40
2023-11-30T07:20:23.844Z,19.90
2023-11-30T07:22:51.931Z,16.90
2023-11-30T07:25:20.245Z,19.70
2023-11-30T07:27:48.790Z,17.30
2023-11-30T07:30:17.195Z,16.60
2023-11-30T07:32:45.373Z,19.00
2023-11-30T07:35:13.592Z,16.80
2023-11-30T07:37:43.765Z,19.00
2023-11-30T07:40:12.098Z,20.60
2023-11-30T07:42:40.389Z,18.00
2023-11-30T07:45:10.845Z,18.40
2023-11-30T07:47:39.100Z,15.40
2023-11-30T07:50:07.705Z,15.10
2023-11-30T07:52:38.644Z,15.30
2023-11-30T07:55:08.772Z,13.50
2023-11-30T07:57:37.653Z,17.40
2023-11-30T08:00:10.307Z,15.90
2023-11-30T08:02:39.524Z,20.40
2023-11-30T08:05:07.939Z,14.90
2023-11-30T08:07:36.486Z,16.40
2023-11-30T08:10:07.055Z,17.00
2023-11-30T08:12:35.355Z,18.90
2023-11-30T08:15:04.731Z,17.90
2023-11-30T08:17:32.876Z,13.30
2023-11-30T08:20:01.165Z,18.80
2023-11-30T08:22:29.798Z,14.10
2023-11-30T08:24:58.267Z,17.00
2023-11-30T08:27:27.317Z,13.60
2023-11-30T08:29:55.467Z,15.70
2023-11-30T08:32:23.768Z,14.90
2023-11-30T08:34:52.509Z,12.30
2023-11-30T08:37:20.659Z,14.80
2023-11-30T08:39:48.974Z,13.70
2023-11-30T08:42:17.166Z,13.60
2023-11-30T08:44:45.316Z,12.80
2023-11-30T08:47:13.753Z,18.30
2023-11-30T08:49:42.026Z,16.00
2023-11-30T08:52:10.119Z,16.60
2023-11-30T08:54:39.208Z,13.00
2023-11-30T08:57:09.194Z,13.90
2023-11-30T08:59:37.376Z,14.10
2023-11-30T09:02:07.085Z,12.10
2023-11-30T09:04:35.539Z,16.90
2023-11-30T09:07:03.875Z,16.00
2023-11-30T09:09:32.136Z,12.50
2023-11-30T09:12:00.392Z,18.30
2023-11-30T09:14:29.090Z,15.80
2023-11-30T09:16:57.151Z,15.90
2023-11-30T09:19:25.601Z,15.90
2023-11-30T09:21:54.150Z,13.40
2023-11-30T09:24:23.734Z,13.40
2023-11-30T09:26:52.487Z,14.30
2023-11-30T09:29:20.738Z,15.20
2023-11-30T09:31:48.837Z,12.40
2023-11-30T09:34:17.087Z,17.00
2023-11-30T09:36:45.304Z,13.80
2023-11-30T09:39:18.606Z,15.20
2023-11-30T09:41:46.716Z,13.40
2023-11-30T09:44:14.816Z,11.80
2023-11-30T09:46:43.877Z,13.80
2023-11-30T09:49:12.220Z,18.20
2023-11-30T09:51:42.901Z,11.70
2023-11-30T09:54:11.367Z,14.30
2023-11-30T09:56:39.716Z,11.90
2023-11-30T09:59:08.305Z,14.40
2023-11-30T10:01:36.771Z,11.30
2023-11-30T10:04:15.913Z,12.40
2023-11-30T10:06:44.754Z,11.70
2023-11-30T10:09:14.503Z,12.40
2023-11-30T10:11:43.252Z,15.30
2023-11-30T10:14:11.608Z,13.50
2023-11-30T10:16:40.819Z,13.70
2023-11-30T10:19:09.352Z,10.10
2023-11-30T10:21:39.430Z,11.20
2023-11-30T10:24:09.503Z,12.20
2023-11-30T10:26:38.625Z,14.10
2023-11-30T10:29:08.150Z,18.40
2023-11-30T10:31:36.831Z,14.60
2023-11-30T10:34:12.295Z,15.30
2023-11-30T10:36:41.681Z,12.80
2023-11-30T10:39:24.361Z,11.90
2023-11-30T10:41:54.444Z,11.80
2023-11-30T10:44:27.340Z,12.70
2023-11-30T10:47:05.422Z,16.60
2023-11-30T10:49:33.841Z,12.20
2023-11-30T10:52:04.235Z,12.70
2023-11-30T10:54:51.136Z,9.30
2023-11-30T10:57:20.462Z,9.20
2023-11-30T10:59:49.508Z,9.40
2023-11-30T11:02:18.006Z,10.10
2023-11-30T11:04:46.258Z,12.00
2023-11-30T11:07:14.618Z,12.60
2023-11-30T11:09:55.598Z,12.30
2023-11-30T11:12:28.111Z,12.70
2023-11-30T11:15:14.676Z,14.00
2023-11-30T11:17:51.407Z,13.20
2023-11-30T11:20:27.865Z,11.80
2023-11-30T11:22:57.091Z,13.70
2023-11-30T11:25:26.595Z,15.30
2023-11-30T11:27:56.422Z,22.70
2023-11-30T11:30:28.381Z,13.80
2023-11-30T11:33:00.908Z,9.80
2023-11-30T11:35:29.346Z,18.20
2023-11-30T11:38:01.367Z,26.50
2023-11-30T11:40:29.617Z,16.80
2023-11-30T11:42:58.239Z,14.60
2023-11-30T11:45:26.700Z,13.40
2023-11-30T11:47:55.319Z,13.00
2023-11-30T11:50:23.976Z,27.50
2023-11-30T11:52:52.246Z,19.80
2023-11-30T11:55:23.888Z,11.60
2023-11-30T11:57:53.443Z,15.40
2023-11-30T12:00:22.338Z,14.50
2023-11-30T12:02:51.227Z,27.10
2023-11-30T12:05:26.907Z,13.30
2023-11-30T12:08:01.026Z,15.90
2023-11-30T12:10:34.562Z,16.90
2023-11-30T12:13:03.923Z,16.20
2023-11-30T12:15:32.416Z,13.20
2023-11-30T12:18:02.226Z,21.90
2023-11-30T12:20:32.404Z,20.40
2023-11-30T12:23:01.023Z,18.50
2023-11-30T12:25:32.553Z,14.90
2023-11-30T12:28:00.880Z,16.00
2023-11-30T12:30:29.299Z,12.30
2023-11-30T12:32:57.922Z,14.30
2023-11-30T12:35:26.279Z,13.60
2023-11-30T12:37:54.544Z,17.00
2023-11-30T12:40:22.869Z,17.30
2023-11-30T12:42:51.126Z,14.50
2023-11-30T12:45:19.954Z,14.40
2023-11-30T12:47:48.553Z,14.80
2023-11-30T12:50:17.014Z,15.80
2023-11-30T12:52:45.216Z,14.40
2023-11-30T12:55:14.920Z,13.20
2023-11-30T12:57:44.272Z,22.50
2023-11-30T13:00:16.353Z,16.20
2023-11-30T13:02:48.031Z,16.60
2023-11-30T13:05:16.533Z,13.20
2023-11-30T13:07:44.856Z,13.70
2023-11-30T13:10:13.256Z,15.00
2023-11-30T13:12:42.690Z,17.70
2023-11-30T13:15:13.741Z,17.70
2023-11-30T13:17:42.925Z,15.90
2023-11-30T13:20:15.060Z,17.30
2023-11-30T13:22:47.320Z,15.70
2023-11-30T13:25:15.988Z,20.60
2023-11-30T13:27:48.564Z,13.20
2023-11-30T13:30:18.472Z,20.70
2023-11-30T13:32:48.023Z,16.40
2023-11-30T13:35:16.860Z,16.00
2023-11-30T13:37:45.188Z,21.90
2023-11-30T13:40:13.528Z,15.60
2023-11-30T13:42:41.967Z,37.30
2023-11-30T13:45:10.630Z,119.20
2023-11-30T13:47:43.148Z,96.50
2023-11-30T13:50:20.776Z,67.20
2023-11-30T13:53:00.247Z,50.50
2023-11-30T13:55:29.161Z,57.50
2023-11-30T13:57:57.934Z,88.60
2023-11-30T14:00:26.376Z,44.70
2023-11-30T14:02:55.187Z,33.80
2023-11-30T14:05:23.899Z,20.30
2023-11-30T14:07:52.713Z,19.70
2023-11-30T14:10:20.907Z,20.30
2023-11-30T14:12:49.552Z,21.10
2023-11-30T14:15:17.909Z,14.90
2023-11-30T14:17:46.292Z,23.30
2023-11-30T14:20:14.834Z,18.90
2023-11-30T14:22:43.050Z,21.20
2023-11-30T14:25:13.654Z,25.00
2023-11-30T14:27:42.262Z,20.50
2023-11-30T14:30:11.477Z,22.20
2023-11-30T14:32:40.390Z,19.40
2023-11-30T14:35:09.249Z,23.50
2023-11-30T14:37:37.700Z,20.20
2023-11-30T14:40:09.912Z,21.20
2023-11-30T14:45:10.156Z,19.30
2023-11-30T14:47:41.106Z,23.40
2023-11-30T14:50:11.828Z,22.90
2023-11-30T14:52:45.317Z,22.10
2023-11-30T14:55:14.640Z,58.30
2023-11-30T14:57:44.781Z,55.30
2023-11-30T15:00:16.526Z,43.90
2023-11-30T15:02:45.125Z,33.20
2023-11-30T15:05:15.756Z,37.50
2023-11-30T15:07:44.608Z,61.00
2023-11-30T15:10:14.335Z,30.20
2023-11-30T15:12:43.214Z,28.10
2023-11-30T15:15:15.535Z,23.30
2023-11-30T15:17:45.912Z,23.60
2023-11-30T15:20:14.695Z,41.20
2023-11-30T15:22:43.226Z,46.20
2023-11-30T15:25:18.968Z,36.20
2023-11-30T15:27:49.554Z,32.60
2023-11-30T15:30:18.882Z,21.10
2023-11-30T15:32:47.483Z,22.80
2023-11-30T15:35:16.650Z,21.00
2023-11-30T15:37:50.374Z,25.40
2023-11-30T15:40:21.786Z,24.80
2023-11-30T15:42:52.061Z,21.10
2023-11-30T15:45:23.764Z,24.90
2023-11-30T15:47:52.555Z,24.30
2023-11-30T15:50:21.194Z,23.20
2023-11-30T15:53:05.865Z,31.90
2023-11-30T15:55:34.091Z,39.40
2023-11-30T15:58:02.563Z,69.50
2023-11-30T16:00:30.859Z,46.90
2023-11-30T16:02:59.233Z,42.70
2023-11-30T16:05:29.690Z,31.60
2023-11-30T16:07:59.307Z,31.80
2023-11-30T16:10:27.749Z,25.80
2023-11-30T16:12:56.245Z,38.70
2023-11-30T16:15:25.797Z,35.90
2023-11-30T16:17:54.492Z,26.30
2023-11-30T16:20:22.732Z,27.60
2023-11-30T16:22:51.177Z,32.20
2023-11-30T16:25:19.622Z,25.00
2023-11-30T16:27:47.962Z,28.30
2023-11-30T16:30:16.345Z,26.90
2023-11-30T16:32:45.798Z,26.70
2023-11-30T16:35:14.858Z,27.40
2023-11-30T16:37:43.169Z,26.10
2023-11-30T16:40:12.395Z,31.10
2023-11-30T16:42:41.040Z,29.60
2023-11-30T16:45:10.093Z,128.30
2023-11-30T16:47:39.610Z,215.50
2023-11-30T16:50:10.283Z,56.90
2023-11-30T16:52:38.733Z,41.30
2023-11-30T16:55:07.539Z,27.00
2023-11-30T16:57:37.410Z,26.00
2023-11-30T17:00:08.345Z,29.30
2023-11-30T17:02:36.634Z,21.00
2023-11-30T17:05:05.745Z,22.10
2023-11-30T17:07:34.102Z,25.40
2023-11-30T17:10:03.866Z,24.50
2023-11-30T17:12:32.634Z,23.70
2023-11-30T17:15:01.249Z,30.60
2023-11-30T17:17:29.806Z,21.80
2023-11-30T17:19:58.164Z,23.80
2023-11-30T17:22:26.604Z,24.50
2023-11-30T17:24:55.102Z,25.20
2023-11-30T17:27:23.751Z,26.60
2023-11-30T17:29:52.154Z,29.70
2023-11-30T17:32:20.634Z,29.50
2023-11-30T17:34:49.093Z,22.10
2023-11-30T17:37:17.457Z,24.60
2023-11-30T17:39:47.364Z,22.80
2023-11-30T17:42:15.928Z,22.70
2023-11-30T17:44:44.448Z,25.30
2023-11-30T17:47:12.962Z,23.30
2023-11-30T17:49:41.553Z,25.00
2023-11-30T17:52:10.014Z,20.70
2023-11-30T17:54:38.703Z,24.30
2023-11-30T17:57:07.033Z,24.90
2023-11-30T17:59:35.472Z,28.90
2023-11-30T18:02:04.364Z,26.50
2023-11-30T18:04:33.118Z,29.50
2023-11-30T18:07:02.689Z,27.90
2023-11-30T18:09:31.339Z,32.80
2023-11-30T18:11:59.593Z,67.50
2023-11-30T18:14:32.831Z,88.80
2023-11-30T18:17:02.347Z,55.30
2023-11-30T18:19:31.138Z,61.00
2023-11-30T18:21:59.761Z,57.60
2023-11-30T18:24:31.824Z,55.20
2023-11-30T18:27:01.261Z,85.80
2023-11-30T18:29:31.355Z,167.60
2023-11-30T18:31:59.936Z,232.50
2023-11-30T18:34:28.924Z,260.50
2023-11-30T18:36:57.902Z,202.80
2023-11-30T18:39:26.533Z,120.70
2023-11-30T18:41:56.416Z,57.60
2023-11-30T18:44:24.944Z,49.50
2023-11-30T18:46:53.495Z,66.90
2023-11-30T18:49:22.088Z,66.90
2023-11-30T18:51:50.399Z,133.80
2023-11-30T18:54:21.803Z,101.40
2023-11-30T18:56:50.556Z,153.40
2023-11-30T18:59:18.961Z,89.90
2023-11-30T19:01:48.927Z,36.20
2023-11-30T19:04:17.506Z,32.30
2023-11-30T19:06:45.997Z,30.00
2023-11-30T19:09:14.582Z,27.20
2023-11-30T19:11:45.822Z,26.60
2023-11-30T19:14:14.182Z,30.10
2023-11-30T19:16:42.777Z,25.70
2023-11-30T19:19:11.588Z,31.90
2023-11-30T19:21:43.807Z,26.50
2023-11-30T19:26:44.060Z,31.00
2023-11-30T19:29:14.401Z,35.60
2023-11-30T19:31:43.007Z,30.40
2023-11-30T19:34:13.425Z,27.80
2023-11-30T19:36:42.528Z,25.30
2023-11-30T19:39:11.051Z,31.60
2023-11-30T19:41:46.643Z,30.50
2023-11-30T19:44:17.449Z,29.80
2023-11-30T19:46:49.728Z,31.30
2023-11-30T19:49:18.179Z,31.90
2023-11-30T19:51:46.487Z,34.40
2023-11-30T19:54:14.865Z,31.20
2023-11-30T19:56:43.601Z,29.40
2023-11-30T19:59:12.162Z,38.90
2023-11-30T20:01:40.713Z,35.50
2023-11-30T20:04:09.398Z,35.60
2023-11-30T20:06:37.984Z,37.30
2023-11-30T20:09:06.524Z,41.80
2023-11-30T20:11:35.052Z,25.90
2023-11-30T20:14:03.550Z,45.40
2023-11-30T20:16:32.146Z,38.20
2023-11-30T20:19:01.504Z,34.30
2023-11-30T20:21:29.987Z,31.20
2023-11-30T20:23:58.327Z,39.40
2023-11-30T20:26:26.950Z,36.40
2023-11-30T20:28:55.335Z,33.10
2023-11-30T20:31:23.590Z,35.80
2023-11-30T20:33:52.927Z,37.70
2023-11-30T20:36:21.577Z,28.30
2023-11-30T20:38:50.230Z,31.20
2023-11-30T20:41:18.776Z,34.60
2023-11-30T20:43:50.375Z,27.50
2023-11-30T20:46:20.902Z,37.10
2023-11-30T20:48:50.224Z,27.90
2023-11-30T20:51:19.668Z,28.90
2023-11-30T20:53:48.096Z,28.40
2023-11-30T20:56:16.498Z,35.70
2023-11-30T20:58:46.989Z,36.30
2023-11-30T21:01:16.020Z,27.40
2023-11-30T21:03:51.336Z,25.30
2023-11-30T21:06:19.611Z,29.90
2023-11-30T21:08:47.946Z,27.10
2023-11-30T21:11:16.375Z,37.00
2023-11-30T21:13:44.863Z,31.30
2023-11-30T21:16:18.736Z,27.50
2023-11-30T21:18:48.083Z,32.70
2023-11-30T21:21:17.935Z,29.70
2023-11-30T21:23:46.463Z,30.60
2023-11-30T21:26:14.745Z,36.00
2023-11-30T21:28:43.167Z,33.50
2023-11-30T21:31:11.713Z,39.70
2023-11-30T21:33:40.151Z,29.40
2023-11-30T21:36:13.670Z,40.10
2023-11-30T21:38:42.360Z,34.50
2023-11-30T21:41:14.996Z,30.60
2023-11-30T21:43:44.193Z,32.50
2023-11-30T21:46:12.795Z,34.90
2023-11-30T21:48:41.553Z,37.70
2023-11-30T21:51:10.089Z,36.80
2023-11-30T21:53:38.284Z,24.90
2023-11-30T21:56:07.527Z,31.60
2023-11-30T21:58:36.055Z,36.00
2023-11-30T22:01:06.187Z,37.40
2023-11-30T22:03:35.024Z,35.80
2023-11-30T22:06:03.486Z,38.90
2023-11-30T22:08:31.822Z,36.30
2023-11-30T22:11:00.196Z,31.90
2023-11-30T22:13:28.668Z,44.00
2023-11-30T22:16:03.491Z,38.40
2023-11-30T22:18:35.277Z,42.90
2023-11-30T22:21:04.373Z,43.10
2023-11-30T22:23:33.913Z,37.80
2023-11-30T22:26:04.471Z,42.20
2023-11-30T22:28:33.339Z,33.50
2023-11-30T22:31:01.877Z,37.20
2023-11-30T22:33:30.467Z,48.20
2023-11-30T22:35:58.781Z,36.10
2023-11-30T22:38:31.017Z,36.70
2023-11-30T22:41:01.217Z,39.50
2023-11-30T22:43:29.700Z,34.30
2023-11-30T22:45:58.205Z,36.80
2023-11-30T22:48:26.586Z,39.20
2023-11-30T22:50:54.882Z,36.80
2023-11-30T22:53:23.415Z,39.60
2023-11-30T22:55:52.017Z,34.10
2023-11-30T22:58:20.571Z,38.80
2023-11-30T23:00:49.418Z,42.30
2023-11-30T23:03:18.289Z,33.50
2023-11-30T23:05:46.812Z,38.50
2023-11-30T23:08:15.116Z,31.50
2023-11-30T23:10:43.612Z,45.10
2023-11-30T23:13:12.027Z,36.20
2023-11-30T23:15:40.470Z,38.20
2023-11-30T23:18:09.259Z,32.50
2023-11-30T23:20:37.699Z,33.60
2023-11-30T23:23:05.978Z,37.40
2023-11-30T23:25:34.181Z,31.40
2023-11-30T23:28:02.585Z,38.00
2023-11-30T23:30:31.980Z,32.70
2023-11-30T23:33:00.493Z,38.10
2023-11-30T23:35:28.836Z,36.40
2023-11-30T23:37:57.125Z,44.60
2023-11-30T23:40:25.716Z,32.30
2023-11-30T23:42:54.196Z,37.00
2023-11-30T23:45:22.541Z,38.90
2023-11-30T23:47:51.030Z,34.50
2023-11-30T23:50:19.458Z,25.80
2023-11-30T23:52:47.709Z,32.20
2023-11-30T23:55:16.191Z,29.80
2023-11-30T23:57:44.603Z,24.80
